Eiwa Maru — JG5742 — position and weather

sailwx.info

Track history (hours):
 
Tides and Currents Weather Stations Pressure Air Temp Water Temp Dewpoint Dewpoint Depression Visibility Wind Speed Wind Dir Waves Ship Positions

Eiwa Maru

Last reported at 2016-Aug-25 22:33 UTC. Time now 2016-Aug-25 23:44 UTC.
Position N 35°32' E 140°02'.

Length 80 m; draft 3.8 m.

Type: Ship (hazmat cat A). MMSI: 431101045.

Date/timePositionNaut miles runAvg speedWind from/ knotsBaromVisibWave heightAir tempDewpointWater temp
2016-Aug-25 22:33N 35°32' E 140°02'0 0.1
2016-Aug-25 21:32N 35°32' E 140°02'5 5.2
2016-Aug-25 20:33N 35°36' E 140°06'0 0.0
2016-Aug-25 19:33N 35°36' E 140°06'0 0.0
2016-Aug-25 18:33N 35°36' E 140°06'0 0.0
2016-Aug-25 17:33N 35°36' E 140°06'0 0.0
2016-Aug-25 16:33N 35°36' E 140°06'0 0.0
2016-Aug-25 15:33N 35°36' E 140°06'0 0.0
2016-Aug-25 14:33N 35°36' E 140°06'0 0.0
2016-Aug-25 13:33N 35°36' E 140°06'0 0.0
2016-Aug-25 12:33N 35°36' E 140°06'0 0.0
2016-Aug-25 11:33N 35°36' E 140°06'0 0.0
2016-Aug-25 10:33N 35°36' E 140°06'0 0.0
2016-Aug-25 09:32N 35°36' E 140°06'0 0.0
2016-Aug-25 08:33N 35°36' E 140°06'0 0.0
2016-Aug-25 07:33N 35°36' E 140°06'0 0.0
2016-Aug-25 06:33N 35°36' E 140°06'0 0.0
2016-Aug-25 04:33N 35°36' E 140°06'0 0.0
2016-Aug-25 03:33N 35°36' E 140°06'0 0.0
2016-Aug-25 02:33N 35°36' E 140°06'0 0.0
2016-Aug-25 01:33N 35°36' E 140°06'0 0.0
2016-Aug-25 00:33N 35°36' E 140°06'0 0.0
2016-Aug-24 23:33N 35°36' E 140°06'3 2.6
2016-Aug-24 22:33N 35°35' E 140°03'5 4.6
2016-Aug-24 21:33N 35°32' E 139°59'0 0.0
2016-Aug-24 20:33N 35°32' E 139°59'0 0.0
2016-Aug-24 19:33N 35°32' E 139°59'0 0.0
2016-Aug-24 18:33N 35°32' E 139°59'0 0.0
2016-Aug-24 17:33N 35°32' E 139°59'0 0.0
2016-Aug-24 16:33N 35°32' E 139°59'0 0.1
2016-Aug-24 15:33N 35°32' E 139°59'10 9.7
2016-Aug-24 14:33N 35°26' E 139°49'1111.0
2016-Aug-24 13:33N 35°15' E 139°47'1212.6
2016-Aug-24 12:33N 35°03' E 139°43'1714.2
2016-Aug-24 11:22N 34°53' E 139°26'223 4.8
2016-Aug-22 12:33N 34°05' E 135°03'6 5.4
2016-Aug-22 11:25N 34°10' E 135°08'0 0.0
2016-Aug-22 10:31N 34°10' E 135°08'0 0.0
2016-Aug-22 09:31N 34°10' E 135°08'0 0.0
2016-Aug-22 08:31N 34°10' E 135°08'0 0.0
2016-Aug-22 07:31N 34°10' E 135°08'0 0.0
2016-Aug-22 06:07N 34°10' E 135°08'0 0.0
2016-Aug-22 05:31N 34°10' E 135°08'0 0.1
2016-Aug-22 04:31N 34°10' E 135°08'0 0.0
2016-Aug-22 03:31N 34°10' E 135°08'0 0.0
2016-Aug-22 01:13N 34°10' E 135°08'0 0.0
2016-Aug-21 23:13N 34°10' E 135°08'0 0.1
2016-Aug-21 22:31N 34°10' E 135°08'0 0.0
2016-Aug-21 21:25N 34°10' E 135°08'0 0.0
2016-Aug-21 20:25N 34°10' E 135°08'0 0.1
2016-Aug-21 19:31N 34°10' E 135°08'0 0.0
2016-Aug-21 18:28N 34°10' E 135°08'0 0.0
2016-Aug-21 17:22N 34°10' E 135°08'0 0.1
2016-Aug-21 16:25N 34°10' E 135°08'0 0.0
2016-Aug-21 15:16N 34°10' E 135°08'0 0.1
2016-Aug-21 14:31N 34°10' E 135°08'0 0.0
2016-Aug-21 13:31N 34°10' E 135°08'0 0.0
2016-Aug-21 12:25N 34°10' E 135°08'0 0.0
2016-Aug-21 11:25N 34°10' E 135°08'0 0.0
2016-Aug-21 10:31N 34°10' E 135°08'0 0.0
2016-Aug-21 09:28N 34°10' E 135°08'0 0.0
2016-Aug-21 08:28N 34°10' E 135°08'0 0.1
2016-Aug-21 07:25N 34°10' E 135°08'0 0.0
2016-Aug-21 06:22N 34°10' E 135°08'0 0.0
2016-Aug-21 05:28N 34°10' E 135°08'0 0.0
2016-Aug-21 04:25N 34°10' E 135°08'0 0.0
2016-Aug-21 03:25N 34°10' E 135°08'0 0.1
2016-Aug-21 02:31N 34°10' E 135°08'0 0.1
2016-Aug-21 01:25N 34°10' E 135°08'0 0.0
2016-Aug-20 23:31N 34°10' E 135°08'0 0.0
2016-Aug-20 22:31N 34°10' E 135°08'0 0.0
2016-Aug-20 21:31N 34°10' E 135°08'0 0.0
2016-Aug-20 20:25N 34°10' E 135°08'0 0.1
2016-Aug-20 19:31N 34°10' E 135°08'0 0.0
2016-Aug-20 18:31N 34°10' E 135°08'0 0.1
2016-Aug-20 17:31N 34°10' E 135°08'0 0.0
2016-Aug-20 16:31N 34°10' E 135°08'0 0.0
2016-Aug-20 15:13N 34°10' E 135°08'0 0.1
2016-Aug-20 14:13N 34°10' E 135°08'0 0.0
2016-Aug-20 13:31N 34°10' E 135°08'0 0.0
2016-Aug-20 12:31N 34°10' E 135°08'0 0.0
2016-Aug-20 11:31N 34°10' E 135°08'0 0.1
2016-Aug-20 10:25N 34°10' E 135°08'0 0.0
2016-Aug-20 09:31N 34°10' E 135°08'0 0.0
2016-Aug-20 07:22N 34°10' E 135°08'0 0.1
2016-Aug-20 06:31N 34°10' E 135°08'0 0.0
2016-Aug-20 05:22N 34°10' E 135°08'3 0.5
2016-Aug-20 00:04N 34°07' E 135°08'0 0.2
2016-Aug-19 21:33N 34°07' E 135°07'0 0.1
2016-Aug-19 20:33N 34°08' E 135°07'0 0.0
2016-Aug-19 19:33N 34°08' E 135°07'0 0.0
2016-Aug-19 18:33N 34°08' E 135°07'0 0.0
2016-Aug-19 17:34N 34°08' E 135°07'0 0.0
2016-Aug-19 16:34N 34°08' E 135°07'0 0.0
2016-Aug-19 15:33N 34°08' E 135°07'0 0.0
2016-Aug-19 14:34N 34°08' E 135°07'0 0.0
2016-Aug-19 13:33N 34°08' E 135°07'0 0.0
2016-Aug-19 10:34N 34°07' E 135°07'0 0.0
2016-Aug-19 09:33N 34°08' E 135°07'23910.8
2016-Aug-18 11:33N 35°13' E 139°46'1212.2
2016-Aug-18 10:33N 35°26' E 139°44'5 5.2
2016-Aug-18 09:33N 35°30' E 139°46'0 0.0
2016-Aug-18 08:33N 35°30' E 139°46'0 0.0
2016-Aug-18 07:34N 35°30' E 139°46'0 0.0
2016-Aug-18 06:33N 35°30' E 139°46'0 0.0
2016-Aug-18 05:34N 35°30' E 139°46'0 0.0
2016-Aug-18 04:33N 35°30' E 139°46'0 0.0
2016-Aug-18 03:33N 35°30' E 139°46'0 0.0
2016-Aug-18 02:33N 35°30' E 139°46'0 0.0
2016-Aug-18 01:33N 35°30' E 139°46'0 0.0
2016-Aug-18 00:33N 35°30' E 139°46'0 0.0
2016-Aug-17 23:33N 35°30' E 139°46'0 0.0
2016-Aug-17 22:33N 35°30' E 139°46'3 3.4
2016-Aug-17 21:33N 35°30' E 139°50'0 0.0
2016-Aug-17 20:33N 35°30' E 139°50'0 0.0
2016-Aug-17 19:33N 35°30' E 139°50'0 0.0
2016-Aug-17 18:33N 35°30' E 139°50'0 0.0
2016-Aug-17 17:33N 35°30' E 139°50'0 0.0
2016-Aug-17 16:33N 35°30' E 139°50'0 0.0
2016-Aug-17 15:33N 35°30' E 139°50'0 0.0
2016-Aug-17 14:33N 35°30' E 139°50'0 0.1
2016-Aug-17 13:33N 35°30' E 139°50'10 9.6
2016-Aug-17 12:33N 35°31' E 140°02'0 0.2
2016-Aug-17 11:33N 35°31' E 140°02'0 0.0
2016-Aug-17 10:33N 35°31' E 140°02'0 0.0
2016-Aug-17 09:33N 35°31' E 140°02'0 0.0
2016-Aug-17 08:33N 35°31' E 140°02'1 1.2
2016-Aug-17 07:33N 35°32' E 140°01'1 1.5
2016-Aug-17 06:34N 35°33' E 140°02'0 0.0
2016-Aug-17 03:30N 35°33' E 140°02'0 0.0
2016-Aug-17 02:32N 35°33' E 140°02'0 0.0
2016-Aug-17 01:33N 35°33' E 140°02'0 0.0
2016-Aug-17 00:31N 35°33' E 140°02'0 0.0
2016-Aug-16 23:33N 35°33' E 140°02'0 0.0
2016-Aug-16 22:33N 35°33' E 140°02'0 0.1
2016-Aug-16 21:28N 35°33' E 140°02'0 0.1
2016-Aug-16 20:32N 35°33' E 140°02'0 0.0
2016-Aug-16 19:33N 35°33' E 140°02'0 0.0
2016-Aug-16 18:33N 35°33' E 140°02'0 0.0
2016-Aug-16 17:33N 35°33' E 140°02'0 0.0
2016-Aug-16 16:33N 35°33' E 140°02'0 0.0
2016-Aug-16 15:33N 35°33' E 140°02'0 0.0
2016-Aug-16 14:34N 35°33' E 140°01'0 0.0
2016-Aug-16 13:31N 35°33' E 140°01'0 0.0
2016-Aug-16 12:33N 35°33' E 140°01'0 0.0
2016-Aug-16 11:33N 35°33' E 140°01'0 0.0
2016-Aug-16 10:33N 35°33' E 140°01'0 0.0
2016-Aug-16 09:33N 35°33' E 140°01'0 0.0
2016-Aug-16 08:33N 35°33' E 140°01'0 0.0
2016-Aug-16 07:33N 35°33' E 140°01'0 0.0
2016-Aug-16 04:33N 35°33' E 140°01'2 1.9
2016-Aug-16 03:33N 35°32' E 140°03'0 0.0
2016-Aug-16 02:33N 35°32' E 140°03'0 0.0
2016-Aug-16 01:33N 35°32' E 140°03'0 0.0
2016-Aug-16 00:33N 35°32' E 140°03'2 1.6
2016-Aug-15 23:33N 35°32' E 140°01'  
Track history (hours):
 
Tides and Currents Weather Stations Pressure Air Temp Water Temp Dewpoint Dewpoint Depression Visibility Wind Speed Wind Dir Waves Ship Positions

Eiwa Maru

Last reported at 2016-Aug-25 22:33 UTC. Time now 2016-Aug-25 23:44 UTC.
Position N 35°32' E 140°02'.

Length 80 m; draft 3.8 m.

Type: Ship (hazmat cat A). MMSI: 431101045.

Date/timePositionNaut miles runAvg speedWind from/ knotsBaromVisibWave heightAir tempDewpointWater temp
2016-Aug-25 22:33N 35°32' E 140°02'0 0.1
2016-Aug-25 21:32N 35°32' E 140°02'5 5.2
2016-Aug-25 20:33N 35°36' E 140°06'0 0.0
2016-Aug-25 19:33N 35°36' E 140°06'0 0.0
2016-Aug-25 18:33N 35°36' E 140°06'0 0.0
2016-Aug-25 17:33N 35°36' E 140°06'0 0.0
2016-Aug-25 16:33N 35°36' E 140°06'0 0.0
2016-Aug-25 15:33N 35°36' E 140°06'0 0.0
2016-Aug-25 14:33N 35°36' E 140°06'0 0.0
2016-Aug-25 13:33N 35°36' E 140°06'0 0.0
2016-Aug-25 12:33N 35°36' E 140°06'0 0.0
2016-Aug-25 11:33N 35°36' E 140°06'0 0.0
2016-Aug-25 10:33N 35°36' E 140°06'0 0.0
2016-Aug-25 09:32N 35°36' E 140°06'0 0.0
2016-Aug-25 08:33N 35°36' E 140°06'0 0.0
2016-Aug-25 07:33N 35°36' E 140°06'0 0.0
2016-Aug-25 06:33N 35°36' E 140°06'0 0.0
2016-Aug-25 04:33N 35°36' E 140°06'0 0.0
2016-Aug-25 03:33N 35°36' E 140°06'0 0.0
2016-Aug-25 02:33N 35°36' E 140°06'0 0.0
2016-Aug-25 01:33N 35°36' E 140°06'0 0.0
2016-Aug-25 00:33N 35°36' E 140°06'0 0.0
2016-Aug-24 23:33N 35°36' E 140°06'3 2.6
2016-Aug-24 22:33N 35°35' E 140°03'5 4.6
2016-Aug-24 21:33N 35°32' E 139°59'0 0.0
2016-Aug-24 20:33N 35°32' E 139°59'0 0.0
2016-Aug-24 19:33N 35°32' E 139°59'0 0.0
2016-Aug-24 18:33N 35°32' E 139°59'0 0.0
2016-Aug-24 17:33N 35°32' E 139°59'0 0.0
2016-Aug-24 16:33N 35°32' E 139°59'0 0.1
2016-Aug-24 15:33N 35°32' E 139°59'10 9.7
2016-Aug-24 14:33N 35°26' E 139°49'1111.0
2016-Aug-24 13:33N 35°15' E 139°47'1212.6
2016-Aug-24 12:33N 35°03' E 139°43'1714.2
2016-Aug-24 11:22N 34°53' E 139°26'223 4.8
2016-Aug-22 12:33N 34°05' E 135°03'6 5.4
2016-Aug-22 11:25N 34°10' E 135°08'0 0.0
2016-Aug-22 10:31N 34°10' E 135°08'0 0.0
2016-Aug-22 09:31N 34°10' E 135°08'0 0.0
2016-Aug-22 08:31N 34°10' E 135°08'0 0.0
2016-Aug-22 07:31N 34°10' E 135°08'0 0.0
2016-Aug-22 06:07N 34°10' E 135°08'0 0.0
2016-Aug-22 05:31N 34°10' E 135°08'0 0.1
2016-Aug-22 04:31N 34°10' E 135°08'0 0.0
2016-Aug-22 03:31N 34°10' E 135°08'0 0.0
2016-Aug-22 01:13N 34°10' E 135°08'0 0.0
2016-Aug-21 23:13N 34°10' E 135°08'0 0.1
2016-Aug-21 22:31N 34°10' E 135°08'0 0.0
2016-Aug-21 21:25N 34°10' E 135°08'0 0.0
2016-Aug-21 20:25N 34°10' E 135°08'0 0.1
2016-Aug-21 19:31N 34°10' E 135°08'0 0.0
2016-Aug-21 18:28N 34°10' E 135°08'0 0.0
2016-Aug-21 17:22N 34°10' E 135°08'0 0.1
2016-Aug-21 16:25N 34°10' E 135°08'0 0.0
2016-Aug-21 15:16N 34°10' E 135°08'0 0.1
2016-Aug-21 14:31N 34°10' E 135°08'0 0.0
2016-Aug-21 13:31N 34°10' E 135°08'0 0.0
2016-Aug-21 12:25N 34°10' E 135°08'0 0.0
2016-Aug-21 11:25N 34°10' E 135°08'0 0.0
2016-Aug-21 10:31N 34°10' E 135°08'0 0.0
2016-Aug-21 09:28N 34°10' E 135°08'0 0.0
2016-Aug-21 08:28N 34°10' E 135°08'0 0.1
2016-Aug-21 07:25N 34°10' E 135°08'0 0.0
2016-Aug-21 06:22N 34°10' E 135°08'0 0.0
2016-Aug-21 05:28N 34°10' E 135°08'0 0.0
2016-Aug-21 04:25N 34°10' E 135°08'0 0.0
2016-Aug-21 03:25N 34°10' E 135°08'0 0.1
2016-Aug-21 02:31N 34°10' E 135°08'0 0.1
2016-Aug-21 01:25N 34°10' E 135°08'0 0.0
2016-Aug-20 23:31N 34°10' E 135°08'0 0.0
2016-Aug-20 22:31N 34°10' E 135°08'0 0.0
2016-Aug-20 21:31N 34°10' E 135°08'0 0.0
2016-Aug-20 20:25N 34°10' E 135°08'0 0.1
2016-Aug-20 19:31N 34°10' E 135°08'0 0.0
2016-Aug-20 18:31N 34°10' E 135°08'0 0.1
2016-Aug-20 17:31N 34°10' E 135°08'0 0.0
2016-Aug-20 16:31N 34°10' E 135°08'0 0.0
2016-Aug-20 15:13N 34°10' E 135°08'0 0.1
2016-Aug-20 14:13N 34°10' E 135°08'0 0.0
2016-Aug-20 13:31N 34°10' E 135°08'0 0.0
2016-Aug-20 12:31N 34°10' E 135°08'0 0.0
2016-Aug-20 11:31N 34°10' E 135°08'0 0.1
2016-Aug-20 10:25N 34°10' E 135°08'0 0.0
2016-Aug-20 09:31N 34°10' E 135°08'0 0.0
2016-Aug-20 07:22N 34°10' E 135°08'0 0.1
2016-Aug-20 06:31N 34°10' E 135°08'0 0.0
2016-Aug-20 05:22N 34°10' E 135°08'3 0.5
2016-Aug-20 00:04N 34°07' E 135°08'0 0.2
2016-Aug-19 21:33N 34°07' E 135°07'0 0.1
2016-Aug-19 20:33N 34°08' E 135°07'0 0.0
2016-Aug-19 19:33N 34°08' E 135°07'0 0.0
2016-Aug-19 18:33N 34°08' E 135°07'0 0.0
2016-Aug-19 17:34N 34°08' E 135°07'0 0.0
2016-Aug-19 16:34N 34°08' E 135°07'0 0.0
2016-Aug-19 15:33N 34°08' E 135°07'0 0.0
2016-Aug-19 14:34N 34°08' E 135°07'0 0.0
2016-Aug-19 13:33N 34°08' E 135°07'0 0.0
2016-Aug-19 10:34N 34°07' E 135°07'0 0.0
2016-Aug-19 09:33N 34°08' E 135°07'23910.8
2016-Aug-18 11:33N 35°13' E 139°46'1212.2
2016-Aug-18 10:33N 35°26' E 139°44'5 5.2
2016-Aug-18 09:33N 35°30' E 139°46'0 0.0
2016-Aug-18 08:33N 35°30' E 139°46'0 0.0
2016-Aug-18 07:34N 35°30' E 139°46'0 0.0
2016-Aug-18 06:33N 35°30' E 139°46'0 0.0
2016-Aug-18 05:34N 35°30' E 139°46'0 0.0
2016-Aug-18 04:33N 35°30' E 139°46'0 0.0
2016-Aug-18 03:33N 35°30' E 139°46'0 0.0
2016-Aug-18 02:33N 35°30' E 139°46'0 0.0
2016-Aug-18 01:33N 35°30' E 139°46'0 0.0
2016-Aug-18 00:33N 35°30' E 139°46'0 0.0
2016-Aug-17 23:33N 35°30' E 139°46'0 0.0
2016-Aug-17 22:33N 35°30' E 139°46'3 3.4
2016-Aug-17 21:33N 35°30' E 139°50'0 0.0
2016-Aug-17 20:33N 35°30' E 139°50'0 0.0
2016-Aug-17 19:33N 35°30' E 139°50'0 0.0
2016-Aug-17 18:33N 35°30' E 139°50'0 0.0
2016-Aug-17 17:33N 35°30' E 139°50'0 0.0
2016-Aug-17 16:33N 35°30' E 139°50'0 0.0
2016-Aug-17 15:33N 35°30' E 139°50'0 0.0
2016-Aug-17 14:33N 35°30' E 139°50'0 0.1
2016-Aug-17 13:33N 35°30' E 139°50'10 9.6
2016-Aug-17 12:33N 35°31' E 140°02'0 0.2
2016-Aug-17 11:33N 35°31' E 140°02'0 0.0
2016-Aug-17 10:33N 35°31' E 140°02'0 0.0
2016-Aug-17 09:33N 35°31' E 140°02'0 0.0
2016-Aug-17 08:33N 35°31' E 140°02'1 1.2
2016-Aug-17 07:33N 35°32' E 140°01'1 1.5
2016-Aug-17 06:34N 35°33' E 140°02'0 0.0
2016-Aug-17 03:30N 35°33' E 140°02'0 0.0
2016-Aug-17 02:32N 35°33' E 140°02'0 0.0
2016-Aug-17 01:33N 35°33' E 140°02'0 0.0
2016-Aug-17 00:31N 35°33' E 140°02'0 0.0
2016-Aug-16 23:33N 35°33' E 140°02'0 0.0
2016-Aug-16 22:33N 35°33' E 140°02'0 0.1
2016-Aug-16 21:28N 35°33' E 140°02'0 0.1
2016-Aug-16 20:32N 35°33' E 140°02'0 0.0
2016-Aug-16 19:33N 35°33' E 140°02'0 0.0
2016-Aug-16 18:33N 35°33' E 140°02'0 0.0
2016-Aug-16 17:33N 35°33' E 140°02'0 0.0
2016-Aug-16 16:33N 35°33' E 140°02'0 0.0
2016-Aug-16 15:33N 35°33' E 140°02'0 0.0
2016-Aug-16 14:34N 35°33' E 140°01'0 0.0
2016-Aug-16 13:31N 35°33' E 140°01'0 0.0
2016-Aug-16 12:33N 35°33' E 140°01'0 0.0
2016-Aug-16 11:33N 35°33' E 140°01'0 0.0
2016-Aug-16 10:33N 35°33' E 140°01'0 0.0
2016-Aug-16 09:33N 35°33' E 140°01'0 0.0
2016-Aug-16 08:33N 35°33' E 140°01'0 0.0
2016-Aug-16 07:33N 35°33' E 140°01'0 0.0
2016-Aug-16 04:33N 35°33' E 140°01'2 1.9
2016-Aug-16 03:33N 35°32' E 140°03'0 0.0
2016-Aug-16 02:33N 35°32' E 140°03'0 0.0
2016-Aug-16 01:33N 35°32' E 140°03'0 0.0
2016-Aug-16 00:33N 35°32' E 140°03'2 1.6
2016-Aug-15 23:33N 35°32' E 140°01'  

Dump ship's entire track history